sensor_id;sensor_type;location;lat;lon;timestamp;pressure;altitude;pressure_sealevel;temperature;humidity
32251;BME280;41295;48.518;9.206;2023-10-08T00:01:12;98107.72;;;14.96;53.62
32251;BME280;41295;48.518;9.206;2023-10-08T00:03:16;98106.97;;;14.94;53.45
32251;BME280;41295;48.518;9.206;2023-10-08T00:05:19;98098.22;;;14.93;53.13
32251;BME280;41295;48.518;9.206;2023-10-08T00:07:23;98103.41;;;14.95;52.96
32251;BME280;41295;48.518;9.206;2023-10-08T00:09:26;98102.59;;;14.93;52.99
32251;BME280;41295;48.518;9.206;2023-10-08T00:11:28;98092.16;;;14.91;53.36
32251;BME280;41295;48.518;9.206;2023-10-08T00:13:30;98088.69;;;14.90;53.52
32251;BME280;41295;48.518;9.206;2023-10-08T00:15:37;98094.06;;;14.87;53.76
32251;BME280;41295;48.518;9.206;2023-10-08T00:17:40;98091.44;;;14.87;53.97
32251;BME280;41295;48.518;9.206;2023-10-08T00:19:47;98093.28;;;14.85;53.83
32251;BME280;41295;48.518;9.206;2023-10-08T00:21:54;98081.00;;;14.86;53.85
32251;BME280;41295;48.518;9.206;2023-10-08T00:23:57;98084.53;;;14.85;54.15
32251;BME280;41295;48.518;9.206;2023-10-08T00:26:01;98083.72;;;14.84;54.20
32251;BME280;41295;48.518;9.206;2023-10-08T00:28:08;98081.97;;;14.83;53.65
32251;BME280;41295;48.518;9.206;2023-10-08T00:30:14;98076.84;;;14.80;53.36
32251;BME280;41295;48.518;9.206;2023-10-08T00:32:19;98072.59;;;14.77;52.97
32251;BME280;41295;48.518;9.206;2023-10-08T00:34:24;98071.66;;;14.78;52.93
32251;BME280;41295;48.518;9.206;2023-10-08T00:36:28;98060.28;;;14.78;52.76
32251;BME280;41295;48.518;9.206;2023-10-08T00:38:31;98063.78;;;14.78;52.85
32251;BME280;41295;48.518;9.206;2023-10-08T00:40:37;98054.97;;;14.79;52.74
32251;BME280;41295;48.518;9.206;2023-10-08T00:42:41;98056.69;;;14.81;52.88
32251;BME280;41295;48.518;9.206;2023-10-08T00:44:47;98046.94;;;14.84;53.03
32251;BME280;41295;48.518;9.206;2023-10-08T00:46:53;98051.41;;;14.82;53.21
32251;BME280;41295;48.518;9.206;2023-10-08T00:48:57;98049.72;;;14.81;53.43
32251;BME280;41295;48.518;9.206;2023-10-08T00:51:17;98044.25;;;14.86;53.55
32251;BME280;41295;48.518;9.206;2023-10-08T00:53:27;98036.44;;;14.84;53.68
32251;BME280;41295;48.518;9.206;2023-10-08T00:55:30;98032.91;;;14.85;53.90
32251;BME280;41295;48.518;9.206;2023-10-08T00:57:35;98035.50;;;14.85;53.96
32251;BME280;41295;48.518;9.206;2023-10-08T00:59:37;98033.75;;;14.86;54.06
32251;BME280;41295;48.518;9.206;2023-10-08T01:01:46;98030.28;;;14.85;54.18
32251;BME280;41295;48.518;9.206;2023-10-08T01:03:52;98041.69;;;14.84;54.25
32251;BME280;41295;48.518;9.206;2023-10-08T01:05:57;98030.28;;;14.85;54.48
32251;BME280;41295;48.518;9.206;2023-10-08T01:08:00;98038.13;;;14.85;54.47
32251;BME280;41295;48.518;9.206;2023-10-08T01:10:07;98033.75;;;14.86;54.36
32251;BME280;41295;48.518;9.206;2023-10-08T01:12:15;98032.91;;;14.85;54.49
32251;BME280;41295;48.518;9.206;2023-10-08T01:14:22;98039.91;;;14.85;54.52
32251;BME280;41295;48.518;9.206;2023-10-08T01:16:33;98034.78;;;14.82;54.64
32251;BME280;41295;48.518;9.206;2023-10-08T01:18:36;98025.16;;;14.82;54.47
32251;BME280;41295;48.518;9.206;2023-10-08T01:20:44;98030.41;;;14.82;54.83
32251;BME280;41295;48.518;9.206;2023-10-08T01:22:55;98036.59;;;14.79;54.91
32251;BME280;41295;48.518;9.206;2023-10-08T01:24:58;98032.28;;;14.78;54.92
32251;BME280;41295;48.518;9.206;2023-10-08T01:27:03;98034.97;;;14.77;55.06
32251;BME280;41295;48.518;9.206;2023-10-08T01:29:11;98026.22;;;14.76;54.95
32251;BME280;41295;48.518;9.206;2023-10-08T01:31:20;98028.94;;;14.75;55.02
32251;BME280;41295;48.518;9.206;2023-10-08T01:33:23;98019.28;;;14.75;55.01
32251;BME280;41295;48.518;9.206;2023-10-08T01:35:29;98029.00;;;14.73;55.19
32251;BME280;41295;48.518;9.206;2023-10-08T01:37:33;98034.31;;;14.72;55.39
32251;BME280;41295;48.518;9.206;2023-10-08T01:39:37;98024.72;;;14.71;55.54
32251;BME280;41295;48.518;9.206;2023-10-08T01:41:43;98021.25;;;14.70;55.69
32251;BME280;41295;48.518;9.206;2023-10-08T01:43:45;98022.09;;;14.71;55.58
32251;BME280;41295;48.518;9.206;2023-10-08T01:45:48;98021.31;;;14.69;55.95
32251;BME280;41295;48.518;9.206;2023-10-08T01:47:52;98021.44;;;14.65;56.13
32251;BME280;41295;48.518;9.206;2023-10-08T01:49:56;98024.13;;;14.64;56.11
32251;BME280;41295;48.518;9.206;2023-10-08T01:52:08;98022.44;;;14.63;56.08
32251;BME280;41295;48.518;9.206;2023-10-08T01:54:22;98011.06;;;14.62;55.98
32251;BME280;41295;48.518;9.206;2023-10-08T01:56:28;98019.88;;;14.61;56.27
32251;BME280;41295;48.518;9.206;2023-10-08T01:58:31;98012.06;;;14.60;56.18
32251;BME280;41295;48.518;9.206;2023-10-08T02:00:35;98015.53;;;14.60;56.21
32251;BME280;41295;48.518;9.206;2023-10-08T02:02:37;98012.97;;;14.59;56.42
32251;BME280;41295;48.518;9.206;2023-10-08T02:04:42;98009.63;;;14.55;56.55
32251;BME280;41295;48.518;9.206;2023-10-08T02:06:46;98004.53;;;14.52;56.43
32251;BME280;41295;48.518;9.206;2023-10-08T02:08:49;98001.09;;;14.50;56.24
32251;BME280;41295;48.518;9.206;2023-10-08T02:10:51;98002.84;;;14.49;56.03
32251;BME280;41295;48.518;9.206;2023-10-08T02:12:55;98000.38;;;14.46;55.80
32251;BME280;41295;48.518;9.206;2023-10-08T02:14:58;98004.72;;;14.47;55.95
32251;BME280;41295;48.518;9.206;2023-10-08T02:17:04;97995.13;;;14.46;55.93
32251;BME280;41295;48.518;9.206;2023-10-08T02:19:08;97999.50;;;14.46;55.87
32251;BME280;41295;48.518;9.206;2023-10-08T02:21:13;97999.50;;;14.46;55.86
32251;BME280;41295;48.518;9.206;2023-10-08T02:23:15;98001.38;;;14.43;55.95
32251;BME280;41295;48.518;9.206;2023-10-08T02:25:19;98005.75;;;14.43;55.87
32251;BME280;41295;48.518;9.206;2023-10-08T02:27:21;98005.75;;;14.43;55.89
32251;BME280;41295;48.518;9.206;2023-10-08T02:29:26;98004.09;;;14.40;56.35
32251;BME280;41295;48.518;9.206;2023-10-08T02:31:29;97998.06;;;14.38;56.39
32251;BME280;41295;48.518;9.206;2023-10-08T02:33:31;98001.69;;;14.36;56.38
32251;BME280;41295;48.518;9.206;2023-10-08T02:35:33;97995.56;;;14.35;56.33
32251;BME280;41295;48.518;9.206;2023-10-08T02:37:35;98007.00;;;14.34;56.24
32251;BME280;41295;48.518;9.206;2023-10-08T02:39:37;98004.44;;;14.33;56.06
32251;BME280;41295;48.518;9.206;2023-10-08T02:41:42;98007.91;;;14.33;55.83
32251;BME280;41295;48.518;9.206;2023-10-08T02:43:47;98014.88;;;14.34;55.73
32251;BME280;41295;48.518;9.206;2023-10-08T02:45:51;98008.81;;;14.32;55.35
32251;BME280;41295;48.518;9.206;2023-10-08T02:47:55;98006.28;;;14.30;55.46
32251;BME280;41295;48.518;9.206;2023-10-08T02:49:58;98010.59;;;14.31;55.66
32251;BME280;41295;48.518;9.206;2023-10-08T02:52:01;98007.16;;;14.29;55.91
32251;BME280;41295;48.518;9.206;2023-10-08T02:54:05;98011.69;;;14.26;56.39
32251;BME280;41295;48.518;9.206;2023-10-08T02:56:07;98011.81;;;14.23;56.61
32251;BME280;41295;48.518;9.206;2023-10-08T02:58:14;98021.50;;;14.21;57.00
32251;BME280;41295;48.518;9.206;2023-10-08T03:00:17;98014.69;;;14.16;57.21
32251;BME280;41295;48.518;9.206;2023-10-08T03:02:23;98018.28;;;14.14;57.57
32251;BME280;41295;48.518;9.206;2023-10-08T03:04:26;98020.13;;;14.12;57.59
32251;BME280;41295;48.518;9.206;2023-10-08T03:06:29;98024.53;;;14.11;57.54
32251;BME280;41295;48.518;9.206;2023-10-08T03:08:33;98028.97;;;14.09;57.45
32251;BME280;41295;48.518;9.206;2023-10-08T03:10:38;98016.75;;;14.08;57.50
32251;BME280;41295;48.518;9.206;2023-10-08T03:12:43;98022.06;;;14.06;57.64
32251;BME280;41295;48.518;9.206;2023-10-08T03:14:44;98018.63;;;14.06;57.74
32251;BME280;41295;48.518;9.206;2023-10-08T03:17:02;98020.38;;;14.05;58.07
32251;BME280;41295;48.518;9.206;2023-10-08T03:19:10;98016.97;;;14.03;58.18
32251;BME280;41295;48.518;9.206;2023-10-08T03:21:14;98026.59;;;14.03;58.50
32251;BME280;41295;48.518;9.206;2023-10-08T03:23:25;98021.34;;;14.03;58.65
32251;BME280;41295;48.518;9.206;2023-10-08T03:25:35;98024.81;;;14.03;58.90
32251;BME280;41295;48.518;9.206;2023-10-08T03:27:43;98027.38;;;14.05;58.95
32251;BME280;41295;48.518;9.206;2023-10-08T03:29:45;98018.72;;;14.03;59.09
32251;BME280;41295;48.518;9.206;2023-10-08T03:31:48;98017.03;;;14.02;59.46
32251;BME280;41295;48.518;9.206;2023-10-08T03:33:52;98012.81;;;13.98;59.38
32251;BME280;41295;48.518;9.206;2023-10-08T03:35:56;98009.38;;;13.95;59.12
32251;BME280;41295;48.518;9.206;2023-10-08T03:37:58;98006.81;;;13.94;59.26
32251;BME280;41295;48.518;9.206;2023-10-08T03:40:21;98009.63;;;13.89;59.52
32251;BME280;41295;48.518;9.206;2023-10-08T03:42:33;98017.56;;;13.88;59.52
32251;BME280;41295;48.518;9.206;2023-10-08T03:44:41;98016.84;;;13.84;59.45
32251;BME280;41295;48.518;9.206;2023-10-08T03:46:44;98019.53;;;13.82;59.24
32251;BME280;41295;48.518;9.206;2023-10-08T03:48:49;98022.19;;;13.81;59.13
32251;BME280;41295;48.518;9.206;2023-10-08T03:50:52;98013.53;;;13.79;59.02
32251;BME280;41295;48.518;9.206;2023-10-08T03:52:59;98018.84;;;13.77;59.11
32251;BME280;41295;48.518;9.206;2023-10-08T03:55:04;98016.31;;;13.74;59.34
32251;BME280;41295;48.518;9.206;2023-10-08T03:57:15;98013.81;;;13.71;59.66
32251;BME280;41295;48.518;9.206;2023-10-08T03:59:26;98014.75;;;13.70;59.77
32251;BME280;41295;48.518;9.206;2023-10-08T04:01:36;98018.34;;;13.67;60.01
32251;BME280;41295;48.518;9.206;2023-10-08T04:03:41;98021.00;;;13.66;60.11
32251;BME280;41295;48.518;9.206;2023-10-08T04:05:59;98014.09;;;13.65;60.15
32251;BME280;41295;48.518;9.206;2023-10-08T04:08:17;98020.16;;;13.65;60.00
32251;BME280;41295;48.518;9.206;2023-10-08T04:10:26;98024.63;;;13.63;60.04
32251;BME280;41295;48.518;9.206;2023-10-08T04:13:00;98022.16;;;13.58;60.12
32251;BME280;41295;48.518;9.206;2023-10-08T04:15:03;98024.91;;;13.55;60.10
32251;BME280;41295;48.518;9.206;2023-10-08T04:17:08;98024.97;;;13.54;60.55
32251;BME280;41295;48.518;9.206;2023-10-08T04:19:12;98025.88;;;13.53;60.62
32251;BME280;41295;48.518;9.206;2023-10-08T04:21:19;98033.81;;;13.50;60.62
32251;BME280;41295;48.518;9.206;2023-10-08T04:23:23;98030.38;;;13.47;60.52
32251;BME280;41295;48.518;9.206;2023-10-08T04:25:26;98039.97;;;13.49;60.36
32251;BME280;41295;48.518;9.206;2023-10-08T04:27:30;98036.56;;;13.46;60.68
32251;BME280;41295;48.518;9.206;2023-10-08T04:29:35;98033.94;;;13.46;60.51
32251;BME280;41295;48.518;9.206;2023-10-08T04:31:39;98039.19;;;13.46;60.58
32251;BME280;41295;48.518;9.206;2023-10-08T04:33:45;98034.06;;;13.43;61.25
32251;BME280;41295;48.518;9.206;2023-10-08T04:35:48;98023.72;;;13.39;61.31
32251;BME280;41295;48.518;9.206;2023-10-08T04:37:53;98025.72;;;13.32;61.42
32251;BME280;41295;48.518;9.206;2023-10-08T04:39:56;98027.72;;;13.25;61.20
32251;BME280;41295;48.518;9.206;2023-10-08T04:42:01;98024.38;;;13.21;61.50
32251;BME280;41295;48.518;9.206;2023-10-08T04:44:12;98026.97;;;13.21;61.36
32251;BME280;41295;48.518;9.206;2023-10-08T04:46:16;98026.06;;;13.22;61.39
32251;BME280;41295;48.518;9.206;2023-10-08T04:48:26;98019.00;;;13.25;61.16
32251;BME280;41295;48.518;9.206;2023-10-08T04:50:31;98018.13;;;13.26;61.04
32251;BME280;41295;48.518;9.206;2023-10-08T04:52:34;98004.09;;;13.27;61.01
32251;BME280;41295;48.518;9.206;2023-10-08T04:54:47;98016.25;;;13.29;61.03
32251;BME280;41295;48.518;9.206;2023-10-08T04:56:54;98013.63;;;13.29;60.85
32251;BME280;41295;48.518;9.206;2023-10-08T04:58:56;98014.44;;;13.30;60.89
32251;BME280;41295;48.518;9.206;2023-10-08T05:00:59;98012.69;;;13.30;60.93
32251;BME280;41295;48.518;9.206;2023-10-08T05:03:18;98012.63;;;13.32;60.77
32251;BME280;41295;48.518;9.206;2023-10-08T05:05:24;98012.56;;;13.33;60.67
32251;BME280;41295;48.518;9.206;2023-10-08T05:07:39;98019.56;;;13.33;60.94
32251;BME280;41295;48.518;9.206;2023-10-08T05:09:59;98012.56;;;13.33;60.74
32251;BME280;41295;48.518;9.206;2023-10-08T05:12:33;98016.84;;;13.36;60.77
32251;BME280;41295;48.518;9.206;2023-10-08T05:14:46;98024.72;;;13.36;60.77
32251;BME280;41295;48.518;9.206;2023-10-08T05:16:57;98020.31;;;13.37;60.82
32251;BME280;41295;48.518;9.206;2023-10-08T05:19:04;98016.72;;;13.39;60.87
32251;BME280;41295;48.518;9.206;2023-10-08T05:21:26;98029.84;;;13.39;60.77
32251;BME280;41295;48.518;9.206;2023-10-08T05:23:42;98024.59;;;13.39;60.53
32251;BME280;41295;48.518;9.206;2023-10-08T05:26:09;98028.91;;;13.40;60.76
32251;BME280;41295;48.518;9.206;2023-10-08T05:28:23;98032.31;;;13.42;60.84
32251;BME280;41295;48.518;9.206;2023-10-08T05:30:27;98033.19;;;13.43;60.92
32251;BME280;41295;48.518;9.206;2023-10-08T05:32:39;98027.03;;;13.44;61.05
32251;BME280;41295;48.518;9.206;2023-10-08T05:35:06;98030.69;;;13.40;61.76
32251;BME280;41295;48.518;9.206;2023-10-08T05:37:26;98032.72;;;13.31;62.48
32251;BME280;41295;48.518;9.206;2023-10-08T05:39:42;98032.22;;;13.21;62.71
32251;BME280;41295;48.518;9.206;2023-10-08T05:41:48;98037.78;;;13.12;63.06
32251;BME280;41295;48.518;9.206;2023-10-08T05:43:57;98036.16;;;13.08;63.14
32251;BME280;41295;48.518;9.206;2023-10-08T05:46:18;98034.47;;;13.07;63.54
32251;BME280;41295;48.518;9.206;2023-10-08T05:48:41;98041.41;;;13.08;63.35
32251;BME280;41295;48.518;9.206;2023-10-08T05:50:47;98039.59;;;13.10;63.42
32251;BME280;41295;48.518;9.206;2023-10-08T05:53:14;98049.13;;;13.13;63.13
32251;BME280;41295;48.518;9.206;2023-10-08T05:55:31;98055.09;;;13.16;63.01
32251;BME280;41295;48.518;9.206;2023-10-08T05:57:37;98054.19;;;13.17;63.11
32251;BME280;41295;48.518;9.206;2023-10-08T05:59:48;98060.22;;;13.19;63.33
32251;BME280;41295;48.518;9.206;2023-10-08T06:02:14;98071.50;;;13.21;63.17
32251;BME280;41295;48.518;9.206;2023-10-08T06:04:30;98073.25;;;13.21;63.34
32251;BME280;41295;48.518;9.206;2023-10-08T06:06:54;98081.06;;;13.22;63.48
32251;BME280;41295;48.518;9.206;2023-10-08T06:09:13;98075.81;;;13.22;63.52
32251;BME280;41295;48.518;9.206;2023-10-08T06:11:36;98077.53;;;13.23;63.83
32251;BME280;41295;48.518;9.206;2023-10-08T06:13:46;98078.56;;;13.19;64.02
32251;BME280;41295;48.518;9.206;2023-10-08T06:15:58;98071.66;;;13.17;63.95
32251;BME280;41295;48.518;9.206;2023-10-08T06:18:10;98073.56;;;13.11;64.55
32251;BME280;41295;48.518;9.206;2023-10-08T06:20:14;98072.00;;;13.07;64.70
32251;BME280;41295;48.518;9.206;2023-10-08T06:22:18;98078.06;;;13.08;64.79
32251;BME280;41295;48.518;9.206;2023-10-08T06:24:25;98083.28;;;13.08;64.62
32251;BME280;41295;48.518;9.206;2023-10-08T06:26:27;98079.63;;;13.14;64.36
32251;BME280;41295;48.518;9.206;2023-10-08T06:28:35;98086.53;;;13.16;64.46
32251;BME280;41295;48.518;9.206;2023-10-08T06:30:40;98088.22;;;13.17;64.27
32251;BME280;41295;48.518;9.206;2023-10-08T06:32:48;98087.28;;;13.20;64.37
32251;BME280;41295;48.518;9.206;2023-10-08T06:34:52;98084.47;;;13.25;64.20
32251;BME280;41295;48.518;9.206;2023-10-08T06:36:55;98085.16;;;13.30;64.03
32251;BME280;41295;48.518;9.206;2023-10-08T06:38:58;98081.47;;;13.35;63.94
32251;BME280;41295;48.518;9.206;2023-10-08T06:41:02;98087.53;;;13.38;64.05
32251;BME280;41295;48.518;9.206;2023-10-08T06:43:10;98079.53;;;13.41;63.90
32251;BME280;41295;48.518;9.206;2023-10-08T06:45:26;98086.38;;;13.45;64.10
32251;BME280;41295;48.518;9.206;2023-10-08T06:47:32;98086.31;;;13.46;64.01
32251;BME280;41295;48.518;9.206;2023-10-08T06:49:36;98083.59;;;13.50;64.25
32251;BME280;41295;48.518;9.206;2023-10-08T06:51:40;98079.16;;;13.52;64.31
32251;BME280;41295;48.518;9.206;2023-10-08T06:53:45;98080.81;;;13.54;64.49
32251;BME280;41295;48.518;9.206;2023-10-08T06:55:48;98078.16;;;13.56;64.53
32251;BME280;41295;48.518;9.206;2023-10-08T06:57:57;98084.97;;;13.60;64.34
32251;BME280;41295;48.518;9.206;2023-10-08T07:00:01;98080.44;;;13.65;64.34
32251;BME280;41295;48.518;9.206;2023-10-08T07:02:11;98071.50;;;13.71;64.25
32251;BME280;41295;48.518;9.206;2023-10-08T07:04:17;98072.22;;;13.75;64.10
32251;BME280;41295;48.518;9.206;2023-10-08T07:06:22;98071.16;;;13.80;63.85
32251;BME280;41295;48.518;9.206;2023-10-08T07:08:32;98070.06;;;13.86;63.67
32251;BME280;41295;48.518;9.206;2023-10-08T07:10:36;98074.16;;;13.93;63.20
32251;BME280;41295;48.518;9.206;2023-10-08T07:12:39;98076.47;;;14.01;62.91
32251;BME280;41295;48.518;9.206;2023-10-08T07:14:43;98074.41;;;14.10;61.81
32251;BME280;41295;48.518;9.206;2023-10-08T07:16:48;98073.28;;;14.15;61.60
32251;BME280;41295;48.518;9.206;2023-10-08T07:18:53;98075.69;;;14.22;61.24
32251;BME280;41295;48.518;9.206;2023-10-08T07:21:02;98071.91;;;14.29;60.99
32251;BME280;41295;48.518;9.206;2023-10-08T07:23:14;98066.34;;;14.37;60.75
32251;BME280;41295;48.518;9.206;2023-10-08T07:25:26;98070.63;;;14.39;60.78
32251;BME280;41295;48.518;9.206;2023-10-08T07:27:38;98072.22;;;14.43;60.68
32251;BME280;41295;48.518;9.206;2023-10-08T07:29:40;98065.00;;;14.49;60.71
32251;BME280;41295;48.518;9.206;2023-10-08T07:31:48;98066.63;;;14.51;60.75
32251;BME280;41295;48.518;9.206;2023-10-08T07:33:54;98056.63;;;14.61;60.26
32251;BME280;41295;48.518;9.206;2023-10-08T07:35:58;98051.09;;;14.67;59.16
32251;BME280;41295;48.518;9.206;2023-10-08T07:38:14;98049.13;;;14.73;58.74
32251;BME280;41295;48.518;9.206;2023-10-08T07:40:17;98056.84;;;14.77;58.60
32251;BME280;41295;48.518;9.206;2023-10-08T07:42:22;98059.94;;;14.87;58.05
32251;BME280;41295;48.518;9.206;2023-10-08T07:44:25;98068.97;;;15.01;57.28
32251;BME280;41295;48.518;9.206;2023-10-08T07:46:26;98062.69;;;15.05;57.22
32251;BME280;41295;48.518;9.206;2023-10-08T07:48:29;98066.91;;;15.09;57.34
32251;BME280;41295;48.518;9.206;2023-10-08T07:50:32;98072.88;;;15.13;57.40
32251;BME280;41295;48.518;9.206;2023-10-08T07:52:35;98075.16;;;15.21;57.35
32251;BME280;41295;48.518;9.206;2023-10-08T07:54:39;98079.84;;;15.33;57.32
32251;BME280;41295;48.518;9.206;2023-10-08T07:56:42;98081.50;;;15.36;57.46
32251;BME280;41295;48.518;9.206;2023-10-08T07:58:44;98083.22;;;15.37;57.58
32251;BME280;41295;48.518;9.206;2023-10-08T08:00:48;98078.53;;;15.44;57.78
32251;BME280;41295;48.518;9.206;2023-10-08T08:02:54;98077.97;;;15.56;57.85
32251;BME280;41295;48.518;9.206;2023-10-08T08:04:58;98083.91;;;15.61;57.80
32251;BME280;41295;48.518;9.206;2023-10-08T08:07:00;98073.56;;;15.76;57.78
32251;BME280;41295;48.518;9.206;2023-10-08T08:09:05;98085.75;;;15.79;57.65
32251;BME280;41295;48.518;9.206;2023-10-08T08:11:20;98076.84;;;15.81;57.56
32251;BME280;41295;48.518;9.206;2023-10-08T08:13:27;98078.22;;;15.90;57.22
32251;BME280;41295;48.518;9.206;2023-10-08T08:15:30;98079.91;;;15.91;57.45
32251;BME280;41295;48.518;9.206;2023-10-08T08:17:32;98079.06;;;15.91;57.22
32251;BME280;41295;48.518;9.206;2023-10-08T08:19:35;98084.16;;;15.94;57.41
32251;BME280;41295;48.518;9.206;2023-10-08T08:21:37;98081.94;;;16.05;57.26
32251;BME280;41295;48.518;9.206;2023-10-08T08:23:47;98084.28;;;16.11;57.07
32251;BME280;41295;48.518;9.206;2023-10-08T08:25:50;98083.34;;;16.13;57.14
32251;BME280;41295;48.518;9.206;2023-10-08T08:28:13;98084.22;;;16.13;57.48
32251;BME280;41295;48.518;9.206;2023-10-08T08:30:21;98078.94;;;16.13;57.52
32251;BME280;41295;48.518;9.206;2023-10-08T08:32:28;98082.22;;;16.18;57.92
32251;BME280;41295;48.518;9.206;2023-10-08T08:34:30;98085.13;;;16.12;57.89
32251;BME280;41295;48.518;9.206;2023-10-08T08:36:33;98083.56;;;16.08;58.31
32251;BME280;41295;48.518;9.206;2023-10-08T08:38:39;98079.94;;;16.10;58.22
32251;BME280;41295;48.518;9.206;2023-10-08T08:40:40;98081.84;;;16.07;58.12
32251;BME280;41295;48.518;9.206;2023-10-08T08:42:44;98088.88;;;16.06;58.23
32251;BME280;41295;48.518;9.206;2023-10-08T08:44:48;98089.75;;;16.07;58.21
32251;BME280;41295;48.518;9.206;2023-10-08T08:46:52;98088.88;;;16.06;58.34
32251;BME280;41295;48.518;9.206;2023-10-08T08:48:55;98085.50;;;16.04;58.35
32251;BME280;41295;48.518;9.206;2023-10-08T08:50:57;98083.69;;;16.05;58.67
32251;BME280;41295;48.518;9.206;2023-10-08T08:53:00;98078.22;;;16.09;58.88
32251;BME280;41295;48.518;9.206;2023-10-08T08:55:05;98083.63;;;16.06;59.07
32251;BME280;41295;48.518;9.206;2023-10-08T08:57:15;98091.38;;;16.09;59.21
32251;BME280;41295;48.518;9.206;2023-10-08T08:59:18;98098.91;;;16.17;57.40
32251;BME280;41295;48.518;9.206;2023-10-08T09:01:23;98110.00;;;16.24;57.23
32251;BME280;41295;48.518;9.206;2023-10-08T09:03:25;98103.97;;;16.22;57.40
32251;BME280;41295;48.518;9.206;2023-10-08T09:05:32;98111.94;;;16.20;57.13
32251;BME280;41295;48.518;9.206;2023-10-08T09:07:36;98117.25;;;16.19;57.10
32251;BME280;41295;48.518;9.206;2023-10-08T09:09:39;98122.16;;;16.27;57.40
32251;BME280;41295;48.518;9.206;2023-10-08T09:11:41;98124.00;;;16.25;57.33
32251;BME280;41295;48.518;9.206;2023-10-08T09:13:44;98124.84;;;16.25;57.26
32251;BME280;41295;48.518;9.206;2023-10-08T09:15:47;98122.00;;;16.30;57.44
32251;BME280;41295;48.518;9.206;2023-10-08T09:17:51;98128.19;;;16.29;57.46
32251;BME280;41295;48.518;9.206;2023-10-08T09:19:54;98121.91;;;16.31;57.65
32251;BME280;41295;48.518;9.206;2023-10-08T09:22:00;98117.53;;;16.32;57.91
32251;BME280;41295;48.518;9.206;2023-10-08T09:24:02;98128.91;;;16.32;58.28
32251;BME280;41295;48.518;9.206;2023-10-08T09:26:10;98127.88;;;16.35;58.42
32251;BME280;41295;48.518;9.206;2023-10-08T09:28:15;98127.97;;;16.33;58.23
32251;BME280;41295;48.518;9.206;2023-10-08T09:30:19;98135.06;;;16.31;58.18
32251;BME280;41295;48.518;9.206;2023-10-08T09:32:22;98135.66;;;16.38;58.75
32251;BME280;41295;48.518;9.206;2023-10-08T09:34:27;98140.00;;;16.39;58.27
32251;BME280;41295;48.518;9.206;2023-10-08T09:36:30;98145.03;;;16.44;58.24
32251;BME280;41295;48.518;9.206;2023-10-08T09:38:34;98144.75;;;16.50;58.22
32251;BME280;41295;48.518;9.206;2023-10-08T09:40:38;98145.44;;;16.54;58.03
32251;BME280;41295;48.518;9.206;2023-10-08T09:42:42;98139.94;;;16.58;57.73
32251;BME280;41295;48.518;9.206;2023-10-08T09:44:44;98144.06;;;16.64;57.55
32251;BME280;41295;48.518;9.206;2023-10-08T09:46:51;98147.09;;;16.74;57.64
32251;BME280;41295;48.518;9.206;2023-10-08T09:48:53;98139.19;;;16.74;57.18
32251;BME280;41295;48.518;9.206;2023-10-08T09:51:00;98139.06;;;16.77;57.25
32251;BME280;41295;48.518;9.206;2023-10-08T09:53:08;98138.03;;;16.80;57.03
32251;BME280;41295;48.518;9.206;2023-10-08T09:55:17;98131.63;;;16.86;56.79
32251;BME280;41295;48.518;9.206;2023-10-08T09:57:21;98133.97;;;16.92;56.67
32251;BME280;41295;48.518;9.206;2023-10-08T09:59:28;98134.66;;;16.95;56.45
32251;BME280;41295;48.518;9.206;2023-10-08T10:01:31;98137.59;;;17.07;54.65
32251;BME280;41295;48.518;9.206;2023-10-08T10:03:34;98134.34;;;17.37;52.08
32251;BME280;41295;48.518;9.206;2023-10-08T10:05:38;98138.63;;;17.40;51.82
32251;BME280;41295;48.518;9.206;2023-10-08T10:07:42;98132.78;;;17.51;51.31
32251;BME280;41295;48.518;9.206;2023-10-08T10:09:45;98133.66;;;17.67;50.91
32251;BME280;41295;48.518;9.206;2023-10-08T10:11:49;98139.47;;;17.74;51.02
32251;BME280;41295;48.518;9.206;2023-10-08T10:13:52;98134.47;;;17.86;48.90
32251;BME280;41295;48.518;9.206;2023-10-08T10:16:01;98141.97;;;17.94;47.48
32251;BME280;41295;48.518;9.206;2023-10-08T10:18:12;98125.31;;;18.09;44.24
32251;BME280;41295;48.518;9.206;2023-10-08T10:20:16;98130.13;;;18.19;44.66
32251;BME280;41295;48.518;9.206;2023-10-08T10:22:29;98130.03;;;18.20;45.09
32251;BME280;41295;48.518;9.206;2023-10-08T10:24:35;98128.75;;;18.27;45.55
32251;BME280;41295;48.518;9.206;2023-10-08T10:26:38;98126.94;;;18.44;47.47
32251;BME280;41295;48.518;9.206;2023-10-08T10:28:46;98130.69;;;18.56;46.90
32251;BME280;41295;48.518;9.206;2023-10-08T10:31:18;98128.28;;;18.68;45.77
32251;BME280;41295;48.518;9.206;2023-10-08T10:33:21;98110.94;;;18.78;44.98
32251;BME280;41295;48.518;9.206;2023-10-08T10:35:25;98112.56;;;18.81;45.40
32251;BME280;41295;48.518;9.206;2023-10-08T10:37:29;98116.91;;;18.82;45.58
32251;BME280;41295;48.518;9.206;2023-10-08T10:39:43;98117.09;;;18.79;45.87
32251;BME280;41295;48.518;9.206;2023-10-08T10:41:55;98112.56;;;18.81;46.00
32251;BME280;41295;48.518;9.206;2023-10-08T10:43:59;98117.03;;;18.95;45.21
32251;BME280;41295;48.518;9.206;2023-10-08T10:46:09;98111.03;;;19.07;44.35
32251;BME280;41295;48.518;9.206;2023-10-08T10:48:41;98110.69;;;19.14;44.16
32251;BME280;41295;48.518;9.206;2023-10-08T10:50:55;98105.13;;;19.18;43.68
32251;BME280;41295;48.518;9.206;2023-10-08T10:53:12;98111.28;;;19.19;43.76
32251;BME280;41295;48.518;9.206;2023-10-08T10:55:15;98112.91;;;19.36;43.50
32251;BME280;41295;48.518;9.206;2023-10-08T10:57:32;98105.91;;;19.50;43.27
32251;BME280;41295;48.518;9.206;2023-10-08T10:59:37;98106.69;;;19.66;42.84
32251;BME280;41295;48.518;9.206;2023-10-08T11:01:44;98100.81;;;19.76;42.17
32251;BME280;41295;48.518;9.206;2023-10-08T11:03:49;98095.69;;;19.73;42.51
32251;BME280;41295;48.518;9.206;2023-10-08T11:05:56;98102.69;;;19.74;43.00
32251;BME280;41295;48.518;9.206;2023-10-08T11:08:01;98095.78;;;19.71;43.32
32251;BME280;41295;48.518;9.206;2023-10-08T11:10:08;98095.78;;;19.71;43.64
32251;BME280;41295;48.518;9.206;2023-10-08T11:12:17;98106.78;;;19.79;43.89